Aviation Digital Data Service (ADDS)

Output produced by METARs form (0546 UTC 20 September 2017)
found at http://www.aviationweather.gov/adds/metars/
 
METAR text: KLAR 200539Z AUTO 26015KT 10SM OVC060 04/M02 A3000 RMK AO2 WSHFT 0519 T00391017
Conditions at: KLAR (LARAMIE , WY, US) observed 0539 UTC 20 September 2017
Temperature: 3.9°C (39°F)
Dewpoint: -1.7°C (29°F) [RH = 67%]
Pressure (altimeter): 30.00 inches Hg (1016.0 mb)
Winds: from the W (260 degrees) at 17 MPH (15 knots; 7.8 m/s)
Visibility: 10 or more miles (16+ km)
Ceiling: 6000 feet AGL
Clouds: overcast cloud deck at 6000 feet AGL
Weather: automated observation with no human augmentation;
there may or may not be significant weather present at this time